createdAt,value
2023-03-31T00:01:28.104Z,2.40
2023-03-31T00:04:03.528Z,2.72
2023-03-31T00:06:37.933Z,3.38
2023-03-31T00:09:15.905Z,2.22
2023-03-31T00:11:42.280Z,2.63
2023-03-31T00:14:09.216Z,2.33
2023-03-31T00:16:36.491Z,2.20
2023-03-31T00:19:03.153Z,2.40
2023-03-31T00:21:33.606Z,2.03
2023-03-31T00:24:04.737Z,2.42
2023-03-31T00:26:31.473Z,2.72
2023-03-31T00:28:58.362Z,2.30
2023-03-31T00:31:25.432Z,1.77
2023-03-31T00:33:51.910Z,1.83
2023-03-31T00:36:21.499Z,2.38
2023-03-31T00:38:48.553Z,1.95
2023-03-31T00:41:15.846Z,2.08
2023-03-31T00:43:42.295Z,2.38
2023-03-31T00:46:15.393Z,2.38
2023-03-31T00:48:45.814Z,2.08
2023-03-31T00:51:12.129Z,2.03
2023-03-31T00:53:38.471Z,2.15
2023-03-31T00:56:13.130Z,1.75
2023-03-31T00:58:43.760Z,2.05
2023-03-31T01:01:14.350Z,2.33
2023-03-31T01:03:42.466Z,1.48
2023-03-31T01:06:10.565Z,1.70
2023-03-31T01:08:38.794Z,1.90
2023-03-31T01:11:07.177Z,2.15
2023-03-31T01:13:35.998Z,1.73
2023-03-31T01:16:02.612Z,1.90
2023-03-31T01:18:29.390Z,1.67
2023-03-31T01:21:03.770Z,1.98
2023-03-31T01:23:48.852Z,1.75
2023-03-31T01:26:38.480Z,1.85
2023-03-31T01:29:04.950Z,2.40
2023-03-31T01:31:39.364Z,1.80
2023-03-31T01:34:11.741Z,2.38
2023-03-31T01:36:47.100Z,1.90
2023-03-31T01:39:25.680Z,2.67
2023-03-31T01:42:15.242Z,1.75
2023-03-31T01:45:02.702Z,1.52
2023-03-31T01:47:34.602Z,2.35
2023-03-31T01:50:04.365Z,1.80
2023-03-31T01:52:49.010Z,1.80
2023-03-31T01:55:25.393Z,2.30
2023-03-31T01:57:54.392Z,1.70
2023-03-31T02:00:26.048Z,2.72
2023-03-31T02:02:55.866Z,1.92
2023-03-31T02:05:25.905Z,2.72
2023-03-31T02:07:54.772Z,2.05
2023-03-31T02:10:22.511Z,2.00
2023-03-31T02:12:49.985Z,1.98
2023-03-31T02:15:19.048Z,1.70
2023-03-31T02:17:46.811Z,2.20
2023-03-31T02:20:15.264Z,1.92
2023-03-31T02:22:43.586Z,1.65
2023-03-31T02:25:11.718Z,1.85
2023-03-31T02:27:43.043Z,1.70
2023-03-31T02:30:10.842Z,2.22
2023-03-31T02:32:38.827Z,1.92
2023-03-31T02:35:06.307Z,1.75
2023-03-31T02:37:32.691Z,2.03
2023-03-31T02:40:00.259Z,1.75
2023-03-31T02:42:27.223Z,1.65
2023-03-31T02:44:53.586Z,1.75
2023-03-31T02:47:21.338Z,1.73
2023-03-31T02:49:53.635Z,2.13
2023-03-31T02:52:22.918Z,1.90
2023-03-31T02:55:09.669Z,1.75
2023-03-31T02:57:49.916Z,1.83
2023-03-31T03:00:28.315Z,2.55
2023-03-31T03:03:01.720Z,2.17
2023-03-31T03:05:34.745Z,2.30
2023-03-31T03:08:01.171Z,1.60
2023-03-31T03:10:40.859Z,1.17
2023-03-31T03:13:07.190Z,1.20
2023-03-31T03:15:56.393Z,1.80
2023-03-31T03:18:22.754Z,1.08
2023-03-31T03:20:50.917Z,1.40
2023-03-31T03:23:17.955Z,0.90
2023-03-31T03:25:44.689Z,1.02
2023-03-31T03:28:11.129Z,1.38
2023-03-31T03:30:37.793Z,0.88
2023-03-31T03:33:06.502Z,0.70
2023-03-31T03:35:33.592Z,1.05
2023-03-31T03:38:00.292Z,1.35
2023-03-31T03:40:26.707Z,0.75
2023-03-31T03:42:52.996Z,0.95
2023-03-31T03:45:19.360Z,0.80
2023-03-31T03:47:45.865Z,0.80
2023-03-31T03:50:16.005Z,0.70
2023-03-31T03:52:42.974Z,0.80
2023-03-31T03:55:09.486Z,1.38
2023-03-31T03:57:36.555Z,1.00
2023-03-31T04:00:08.555Z,1.30
2023-03-31T04:02:34.962Z,1.25
2023-03-31T04:05:01.345Z,1.35
2023-03-31T04:07:27.769Z,1.50
2023-03-31T04:09:54.073Z,1.27
2023-03-31T04:12:20.513Z,1.75
2023-03-31T04:14:46.953Z,2.15
2023-03-31T04:17:15.660Z,1.65
2023-03-31T04:19:42.438Z,1.73
2023-03-31T04:22:11.563Z,1.85
2023-03-31T04:24:38.798Z,1.80
2023-03-31T04:27:07.403Z,1.83
2023-03-31T04:29:34.076Z,2.00
2023-03-31T04:32:00.576Z,2.03
2023-03-31T04:34:34.940Z,1.85
2023-03-31T04:37:02.877Z,1.38
2023-03-31T04:39:32.794Z,2.20
2023-03-31T04:41:59.669Z,1.48
2023-03-31T04:44:27.193Z,1.75
2023-03-31T04:46:53.853Z,1.55
2023-03-31T04:49:20.220Z,1.67
2023-03-31T04:51:46.900Z,2.17
2023-03-31T04:54:13.363Z,1.85
2023-03-31T04:56:39.820Z,1.98
2023-03-31T04:59:06.646Z,1.50
2023-03-31T05:01:33.266Z,1.45
2023-03-31T05:03:59.906Z,1.27
2023-03-31T05:06:26.268Z,1.20
2023-03-31T05:08:52.630Z,1.67
2023-03-31T05:11:18.952Z,1.52
2023-03-31T05:13:45.521Z,1.05
2023-03-31T05:16:14.578Z,1.00
2023-03-31T05:18:41.531Z,1.13
2023-03-31T05:21:12.019Z,1.05
2023-03-31T05:23:38.488Z,1.00
2023-03-31T05:26:05.184Z,1.05
2023-03-31T05:28:32.585Z,1.10
2023-03-31T05:31:00.283Z,0.82
2023-03-31T05:33:26.628Z,0.52
2023-03-31T05:35:53.124Z,0.88
2023-03-31T05:38:19.526Z,0.60
2023-03-31T05:40:45.982Z,0.70
2023-03-31T05:43:12.316Z,0.88
2023-03-31T05:45:38.654Z,0.70
2023-03-31T05:48:05.933Z,0.80
2023-03-31T05:50:32.394Z,0.63
2023-03-31T05:52:59.830Z,0.50
2023-03-31T05:55:26.240Z,0.57
2023-03-31T05:57:52.592Z,0.63
2023-03-31T06:00:19.652Z,0.70
2023-03-31T06:02:46.908Z,0.80
2023-03-31T06:05:13.392Z,0.52
2023-03-31T06:07:39.713Z,0.45
2023-03-31T06:10:08.254Z,0.65
2023-03-31T06:12:34.649Z,0.75
2023-03-31T06:15:01.052Z,0.50
2023-03-31T06:17:27.787Z,0.70
2023-03-31T06:19:54.210Z,0.85
2023-03-31T06:22:21.082Z,0.88
2023-03-31T06:24:47.421Z,0.65
2023-03-31T06:27:13.786Z,0.80
2023-03-31T06:29:40.157Z,0.75
2023-03-31T06:32:06.760Z,0.80
2023-03-31T06:34:33.184Z,0.73
2023-03-31T06:36:59.516Z,1.20
2023-03-31T06:39:28.153Z,0.50
2023-03-31T06:41:54.681Z,0.88
2023-03-31T06:44:23.164Z,0.45
2023-03-31T06:46:49.580Z,0.90
2023-03-31T06:49:16.178Z,0.98
2023-03-31T06:51:42.560Z,0.82
2023-03-31T06:54:09.084Z,1.60
2023-03-31T06:56:35.486Z,0.47
2023-03-31T06:59:01.977Z,0.98
2023-03-31T07:01:28.467Z,1.08
2023-03-31T07:03:54.793Z,1.13
2023-03-31T07:06:21.254Z,1.10
2023-03-31T07:08:48.138Z,1.98
2023-03-31T07:11:14.756Z,0.63
2023-03-31T07:13:41.158Z,1.10
2023-03-31T07:16:08.003Z,1.13
2023-03-31T07:18:36.564Z,0.93
2023-03-31T07:21:05.049Z,0.80
2023-03-31T07:23:33.678Z,1.25
2023-03-31T07:26:02.550Z,1.35
2023-03-31T07:28:29.569Z,1.40
2023-03-31T07:30:56.274Z,1.52
2023-03-31T07:33:22.675Z,1.42
2023-03-31T07:35:56.862Z,1.52
2023-03-31T07:38:30.172Z,1.52
2023-03-31T07:41:07.777Z,1.85
2023-03-31T07:43:35.801Z,1.38
2023-03-31T07:46:02.154Z,1.73
2023-03-31T07:48:28.895Z,1.80
2023-03-31T07:50:55.512Z,1.52
2023-03-31T07:53:21.847Z,1.67
2023-03-31T07:55:48.858Z,1.52
2023-03-31T07:58:15.621Z,1.98
2023-03-31T08:00:42.007Z,1.50
2023-03-31T08:03:08.421Z,1.63
2023-03-31T08:05:34.889Z,1.65
2023-03-31T08:08:01.485Z,1.90
2023-03-31T08:10:28.170Z,2.42
2023-03-31T08:12:54.548Z,2.00
2023-03-31T08:15:20.957Z,1.90
2023-03-31T08:17:47.513Z,1.90
2023-03-31T08:20:13.950Z,1.90
2023-03-31T08:22:40.466Z,2.38
2023-03-31T08:25:08.319Z,1.63
2023-03-31T08:27:39.451Z,1.48
2023-03-31T08:30:07.043Z,2.15
2023-03-31T08:32:33.923Z,1.75
2023-03-31T08:35:00.554Z,2.03
2023-03-31T08:37:28.242Z,2.22
2023-03-31T08:39:55.766Z,1.88
2023-03-31T08:42:29.095Z,2.72
2023-03-31T08:44:59.559Z,2.72
2023-03-31T08:47:27.431Z,2.70
2023-03-31T08:49:58.353Z,2.20
2023-03-31T08:52:28.043Z,2.55
2023-03-31T08:54:59.643Z,2.92
2023-03-31T08:57:28.465Z,2.70
2023-03-31T08:59:58.329Z,2.53
2023-03-31T09:02:49.011Z,2.67
2023-03-31T09:05:33.879Z,2.20
2023-03-31T09:08:00.285Z,2.22
2023-03-31T09:10:28.419Z,2.38
2023-03-31T09:13:09.772Z,2.90
2023-03-31T09:15:39.293Z,2.72
2023-03-31T09:18:25.367Z,2.25
2023-03-31T09:23:21.191Z,2.25
2023-03-31T09:25:47.697Z,2.47
2023-03-31T09:28:19.308Z,2.72
2023-03-31T09:30:49.625Z,2.40
2023-03-31T09:33:21.269Z,2.67
2023-03-31T09:35:48.818Z,3.20
2023-03-31T09:38:16.984Z,2.60
2023-03-31T09:40:43.520Z,1.95
2023-03-31T09:43:22.921Z,2.97
2023-03-31T09:46:14.687Z,2.42
2023-03-31T09:48:36.627Z,2.63
2023-03-31T09:51:04.502Z,2.75
2023-03-31T09:53:39.477Z,3.05
2023-03-31T09:56:08.614Z,2.22
2023-03-31T09:58:42.899Z,2.45
2023-03-31T10:01:11.133Z,2.45
2023-03-31T10:03:56.630Z,1.95
2023-03-31T10:06:24.007Z,2.63
2023-03-31T10:09:01.540Z,2.75
2023-03-31T10:11:28.063Z,2.63
2023-03-31T10:14:02.716Z,2.80
2023-03-31T10:16:43.448Z,2.47
2023-03-31T10:19:12.639Z,2.28
2023-03-31T10:21:39.268Z,3.03
2023-03-31T10:24:10.487Z,2.08
2023-03-31T10:26:37.086Z,2.22
2023-03-31T10:29:10.145Z,2.47
2023-03-31T10:31:37.280Z,2.35
2023-03-31T10:34:08.522Z,2.35
2023-03-31T10:36:35.465Z,2.22
2023-03-31T10:39:05.900Z,1.90
2023-03-31T10:41:33.206Z,2.10
2023-03-31T10:44:00.732Z,2.28
2023-03-31T10:46:40.932Z,1.83
2023-03-31T10:49:22.634Z,2.13
2023-03-31T10:51:50.062Z,2.38
2023-03-31T10:54:16.399Z,1.90
2023-03-31T10:56:49.387Z,1.63
2023-03-31T10:59:35.157Z,1.92
2023-03-31T11:02:04.705Z,1.55
2023-03-31T11:04:49.943Z,1.17
2023-03-31T11:07:29.216Z,1.73
2023-03-31T11:10:11.022Z,1.88
2023-03-31T11:12:44.626Z,1.40
2023-03-31T11:15:29.901Z,1.65
2023-03-31T11:17:59.340Z,2.42
2023-03-31T11:20:32.604Z,1.70
2023-03-31T11:23:18.471Z,1.50
2023-03-31T11:26:06.406Z,1.55
2023-03-31T11:28:50.190Z,1.73
2023-03-31T11:31:22.691Z,1.77
2023-03-31T11:33:57.093Z,1.48
2023-03-31T11:36:36.862Z,1.30
2023-03-31T11:39:19.167Z,1.67
2023-03-31T11:42:03.227Z,1.23
2023-03-31T11:44:36.407Z,1.52
2023-03-31T11:47:12.931Z,1.00
2023-03-31T11:49:41.466Z,1.40
2023-03-31T11:52:09.802Z,1.30
2023-03-31T11:54:42.180Z,1.17
2023-03-31T11:57:14.772Z,1.15
2023-03-31T11:59:42.677Z,0.90
2023-03-31T12:02:22.111Z,1.25
2023-03-31T12:04:50.918Z,1.00
2023-03-31T12:07:32.073Z,1.40
2023-03-31T12:10:05.728Z,1.42
2023-03-31T12:12:37.779Z,1.35
2023-03-31T12:15:10.545Z,0.90
2023-03-31T12:17:37.788Z,1.10
2023-03-31T12:20:10.630Z,1.02
2023-03-31T12:22:43.360Z,1.60
2023-03-31T12:25:14.964Z,1.40
2023-03-31T12:27:43.847Z,1.15
2023-03-31T12:30:30.739Z,1.40
2023-03-31T12:33:02.075Z,1.77
2023-03-31T12:35:47.435Z,1.83
2023-03-31T12:38:16.596Z,1.30
2023-03-31T12:40:43.076Z,1.45
2023-03-31T12:43:25.517Z,1.15
2023-03-31T12:46:10.050Z,1.30
2023-03-31T12:48:36.621Z,1.60
2023-03-31T12:51:06.438Z,1.77
2023-03-31T12:53:33.010Z,1.02
2023-03-31T12:55:59.801Z,0.80
2023-03-31T12:58:34.771Z,0.93
2023-03-31T13:01:07.886Z,1.13
2023-03-31T13:03:34.541Z,1.10
2023-03-31T13:06:01.536Z,1.08
2023-03-31T13:08:46.662Z,0.80
2023-03-31T13:11:13.092Z,1.30
2023-03-31T13:13:59.865Z,0.68
2023-03-31T13:16:27.155Z,1.05
2023-03-31T13:18:54.244Z,0.60
2023-03-31T13:21:21.268Z,0.88
2023-03-31T13:23:47.993Z,0.73
2023-03-31T13:26:32.592Z,0.90
2023-03-31T13:29:14.283Z,0.90
2023-03-31T13:31:59.151Z,1.20
2023-03-31T13:34:27.056Z,1.00
2023-03-31T13:37:11.943Z,1.08
2023-03-31T13:39:44.234Z,0.65
2023-03-31T13:42:42.842Z,1.10
2023-03-31T13:45:12.249Z,1.00
2023-03-31T13:47:44.665Z,1.10
2023-03-31T13:50:29.324Z,1.10
2023-03-31T13:52:58.692Z,1.17
2023-03-31T13:55:31.262Z,1.63
2023-03-31T13:57:57.584Z,1.98
2023-03-31T14:00:27.305Z,0.70
2023-03-31T14:03:07.531Z,1.33
2023-03-31T14:05:36.289Z,1.20
2023-03-31T14:08:07.591Z,1.20
2023-03-31T14:10:36.821Z,1.10
2023-03-31T14:13:11.312Z,1.20
2023-03-31T14:15:40.245Z,1.00
2023-03-31T14:18:07.222Z,1.30
2023-03-31T14:20:57.294Z,1.27
2023-03-31T14:23:34.458Z,1.02
2023-03-31T14:26:06.951Z,0.88
2023-03-31T14:28:49.688Z,1.20
2023-03-31T14:31:21.872Z,1.58
2023-03-31T14:34:00.548Z,1.63
2023-03-31T14:36:33.655Z,1.23
2023-03-31T14:39:04.484Z,1.10
2023-03-31T14:41:30.852Z,1.30
2023-03-31T14:43:58.633Z,2.00
2023-03-31T14:46:25.175Z,1.08
2023-03-31T14:48:52.033Z,0.93
2023-03-31T14:51:24.838Z,1.25
2023-03-31T14:53:58.261Z,1.30
2023-03-31T14:56:31.345Z,1.20
2023-03-31T14:58:57.730Z,1.10
2023-03-31T15:01:26.235Z,1.15
2023-03-31T15:03:53.780Z,1.40
2023-03-31T15:06:20.295Z,1.25
2023-03-31T15:08:46.728Z,1.10
2023-03-31T15:11:17.199Z,1.13
2023-03-31T15:14:01.096Z,1.50
2023-03-31T15:16:30.403Z,1.00
2023-03-31T15:18:58.161Z,1.48
2023-03-31T15:21:25.777Z,0.98
2023-03-31T15:23:53.741Z,1.70
2023-03-31T15:26:28.130Z,1.13
2023-03-31T15:29:00.164Z,1.10
2023-03-31T15:31:27.298Z,1.27
2023-03-31T15:33:53.965Z,1.00
2023-03-31T15:36:21.209Z,1.27
2023-03-31T15:38:52.961Z,1.10
2023-03-31T15:41:20.531Z,0.90
2023-03-31T15:43:49.154Z,0.80
2023-03-31T15:46:19.911Z,0.93
2023-03-31T15:48:50.714Z,1.38
2023-03-31T15:51:18.917Z,1.55
2023-03-31T15:53:46.696Z,0.90
2023-03-31T15:56:29.455Z,0.88
2023-03-31T15:59:02.906Z,1.33
2023-03-31T16:01:32.883Z,1.02
2023-03-31T16:04:00.480Z,0.80
2023-03-31T16:06:39.244Z,1.20
2023-03-31T16:09:08.122Z,0.80
2023-03-31T16:11:49.354Z,0.80
2023-03-31T16:14:18.718Z,0.90
2023-03-31T16:16:54.261Z,0.95
2023-03-31T16:19:21.971Z,0.80
2023-03-31T16:21:52.798Z,0.80
2023-03-31T16:24:20.360Z,0.90
2023-03-31T16:26:47.148Z,1.00
2023-03-31T16:29:20.774Z,0.88
2023-03-31T16:31:47.302Z,0.85
2023-03-31T16:34:13.718Z,1.20
2023-03-31T16:36:40.787Z,0.80
2023-03-31T16:39:07.864Z,1.05
2023-03-31T16:41:35.879Z,1.00
2023-03-31T16:44:02.389Z,0.80
2023-03-31T16:46:28.845Z,1.25
2023-03-31T16:48:55.469Z,1.00
2023-03-31T16:51:21.888Z,0.90
2023-03-31T16:53:48.372Z,0.90
2023-03-31T16:56:15.589Z,0.93
2023-03-31T16:58:42.615Z,0.90
2023-03-31T17:01:10.063Z,0.95
2023-03-31T17:03:38.495Z,0.85
2023-03-31T17:06:09.510Z,0.98
2023-03-31T17:08:37.949Z,1.17
2023-03-31T17:11:07.100Z,1.25
2023-03-31T17:13:33.795Z,1.27
2023-03-31T17:16:08.610Z,1.50
2023-03-31T17:18:44.147Z,2.67
2023-03-31T17:21:11.823Z,2.25
2023-03-31T17:23:39.278Z,2.45
2023-03-31T17:26:06.591Z,2.40
2023-03-31T17:28:33.573Z,2.75
2023-03-31T17:30:59.928Z,2.70
2023-03-31T17:33:27.034Z,3.08
2023-03-31T17:35:58.371Z,3.05
2023-03-31T17:38:25.493Z,3.17
2023-03-31T17:40:51.918Z,2.50
2023-03-31T17:43:18.326Z,2.10
2023-03-31T17:45:46.778Z,3.15
2023-03-31T17:48:13.170Z,2.38
2023-03-31T17:50:39.752Z,2.85
2023-03-31T17:53:08.980Z,3.30
2023-03-31T17:55:38.482Z,3.10
2023-03-31T17:58:06.371Z,3.15
2023-03-31T18:00:32.788Z,3.20
2023-03-31T18:02:59.580Z,3.30
2023-03-31T18:05:26.141Z,4.07
2023-03-31T18:07:53.591Z,3.72
2023-03-31T18:10:20.377Z,3.50
2023-03-31T18:12:46.775Z,3.72
2023-03-31T18:15:13.213Z,3.13
2023-03-31T18:17:39.594Z,2.67
2023-03-31T18:20:06.238Z,3.78
2023-03-31T18:22:32.683Z,3.80
2023-03-31T18:24:59.053Z,2.70
2023-03-31T18:27:25.594Z,2.88
2023-03-31T18:29:52.172Z,3.33
2023-03-31T18:32:18.750Z,3.53
2023-03-31T18:34:45.252Z,2.00
2023-03-31T18:37:12.568Z,3.63
2023-03-31T18:39:39.054Z,2.55
2023-03-31T18:42:05.553Z,2.88
2023-03-31T18:44:31.994Z,2.65
2023-03-31T18:46:58.507Z,2.28
2023-03-31T18:49:24.974Z,2.60
2023-03-31T18:51:51.756Z,2.47
2023-03-31T18:54:18.121Z,2.22
2023-03-31T18:56:44.561Z,2.67
2023-03-31T18:59:10.956Z,3.40
2023-03-31T19:01:40.121Z,3.47
2023-03-31T19:04:07.475Z,3.92
2023-03-31T19:06:34.163Z,3.90
2023-03-31T19:09:01.295Z,4.30
2023-03-31T19:11:27.788Z,5.00
2023-03-31T19:13:55.920Z,3.85
2023-03-31T19:16:24.422Z,4.57
2023-03-31T19:18:50.935Z,3.72
2023-03-31T19:21:17.301Z,3.30
2023-03-31T19:23:43.630Z,3.70
2023-03-31T19:26:11.637Z,3.05
2023-03-31T19:28:38.040Z,2.58
2023-03-31T19:31:04.837Z,4.07
2023-03-31T19:33:31.769Z,3.10
2023-03-31T19:35:59.178Z,3.28
2023-03-31T19:38:27.075Z,3.30
2023-03-31T19:40:53.462Z,3.58
2023-03-31T19:43:21.553Z,2.97
2023-03-31T19:45:48.481Z,3.45
2023-03-31T19:48:15.206Z,3.50
2023-03-31T19:50:45.600Z,3.92
2023-03-31T19:53:12.025Z,4.22
2023-03-31T19:55:40.059Z,3.75
2023-03-31T19:58:06.861Z,4.30
2023-03-31T20:00:33.196Z,3.95
2023-03-31T20:03:00.209Z,4.90
2023-03-31T20:05:27.009Z,3.20
2023-03-31T20:07:53.353Z,5.55
2023-03-31T20:10:19.835Z,4.28
2023-03-31T20:12:46.153Z,4.15
2023-03-31T20:15:12.621Z,4.68
2023-03-31T20:17:39.162Z,3.88
2023-03-31T20:20:05.963Z,4.63
2023-03-31T20:22:32.310Z,3.45
2023-03-31T20:24:58.767Z,4.10
2023-03-31T20:27:26.395Z,3.38
2023-03-31T20:29:53.102Z,3.22
2023-03-31T20:32:19.452Z,2.45
2023-03-31T20:34:45.763Z,3.15
2023-03-31T20:37:12.264Z,3.45
2023-03-31T20:39:38.624Z,3.33
2023-03-31T20:42:06.308Z,3.55
2023-03-31T20:44:32.781Z,3.25
2023-03-31T20:47:00.455Z,3.30
2023-03-31T20:49:27.035Z,2.97
2023-03-31T20:51:53.517Z,2.97
2023-03-31T20:54:19.852Z,3.15
2023-03-31T20:56:47.135Z,2.58
2023-03-31T20:59:14.992Z,2.92
2023-03-31T21:01:42.523Z,3.10
2023-03-31T21:04:10.001Z,3.00
2023-03-31T21:06:37.945Z,3.17
2023-03-31T21:09:04.359Z,2.80
2023-03-31T21:11:31.049Z,2.40
2023-03-31T21:13:57.420Z,2.58
2023-03-31T21:16:23.968Z,3.67
2023-03-31T21:18:51.728Z,3.55
2023-03-31T21:21:24.309Z,3.65
2023-03-31T21:23:51.512Z,3.45
2023-03-31T21:26:17.879Z,2.92
2023-03-31T21:28:44.585Z,3.10
2023-03-31T21:31:12.499Z,3.50
2023-03-31T21:33:39.804Z,3.13
2023-03-31T21:36:07.982Z,2.65
2023-03-31T21:38:36.159Z,2.28
2023-03-31T21:41:10.029Z,2.97
2023-03-31T21:43:37.262Z,2.30
2023-03-31T21:46:04.072Z,3.38
2023-03-31T21:48:30.496Z,2.05
2023-03-31T21:51:00.390Z,2.42
2023-03-31T21:53:28.694Z,3.00
2023-03-31T21:55:56.453Z,2.70
2023-03-31T21:58:25.156Z,4.75
2023-03-31T22:00:54.664Z,3.67
2023-03-31T22:03:27.120Z,3.45
2023-03-31T22:05:58.270Z,1.85
2023-03-31T22:08:25.391Z,3.70
2023-03-31T22:10:52.297Z,4.95
2023-03-31T22:13:19.326Z,4.60
2023-03-31T22:15:46.005Z,5.25
2023-03-31T22:18:12.369Z,4.68
2023-03-31T22:20:39.099Z,4.88
2023-03-31T22:23:06.306Z,4.18
2023-03-31T22:25:33.149Z,4.68
2023-03-31T22:27:59.715Z,6.10
2023-03-31T22:30:26.120Z,5.45
2023-03-31T22:32:52.741Z,6.10
2023-03-31T22:35:19.243Z,5.32
2023-03-31T22:37:46.092Z,4.85
2023-03-31T22:40:12.489Z,4.00
2023-03-31T22:42:38.830Z,4.97
2023-03-31T22:45:05.448Z,4.18
2023-03-31T22:47:31.900Z,4.88
2023-03-31T22:49:58.312Z,4.20
2023-03-31T22:52:24.673Z,5.68
2023-03-31T22:54:50.989Z,5.75
2023-03-31T22:57:17.728Z,5.60
2023-03-31T22:59:44.082Z,6.50
2023-03-31T23:02:10.542Z,5.50
2023-03-31T23:04:36.936Z,5.88
2023-03-31T23:07:03.642Z,6.50
2023-03-31T23:09:30.025Z,5.53
2023-03-31T23:11:56.339Z,4.72
2023-03-31T23:14:22.886Z,4.18
2023-03-31T23:16:49.249Z,5.03
2023-03-31T23:19:15.719Z,4.95
2023-03-31T23:21:42.102Z,5.80
2023-03-31T23:24:09.578Z,7.05
2023-03-31T23:26:36.016Z,2.95
2023-03-31T23:29:02.567Z,5.60
2023-03-31T23:31:31.084Z,6.13
2023-03-31T23:33:58.120Z,5.32
2023-03-31T23:36:25.621Z,6.75
2023-03-31T23:38:52.943Z,5.47
2023-03-31T23:41:20.374Z,6.20
2023-03-31T23:43:46.867Z,5.65
2023-03-31T23:46:13.470Z,7.43
2023-03-31T23:48:39.893Z,6.18
2023-03-31T23:51:09.749Z,4.80
2023-03-31T23:53:36.733Z,6.78
2023-03-31T23:56:04.833Z,6.75
2023-03-31T23:58:31.247Z,5.13
